Novomar — 5BCT2 — position and weather

sailwx.info

Track history (hours):
 
Tides and Currents Weather Stations Pressure Air Temp Water Temp Dewpoint Dewpoint Depression Visibility Wind Speed Wind Dir Waves Ship Positions

Novomar

Last reported at 2014-Sep-19 13:33 UTC. Time now 2014-Sep-19 13:56 UTC.
Position N 56°01' E 012°38'.

Length 89 m; draft 5.3 m.

Type: Cargo ship. MMSI: 210974000.

Date/timePositionNaut miles runAvg speedWind from/ knotsBaromVisibWave heightAir tempDewpointWater temp
2014-Sep-19 13:33N 56°01' E 012°38'8 8.2
2014-Sep-19 12:33N 56°08' E 012°29'9 8.9
2014-Sep-19 11:33N 56°13' E 012°16'9 9.5
2014-Sep-19 10:33N 56°19' E 012°03'21 9.4
2014-Sep-19 08:16N 56°40' E 011°55'17 9.8
2014-Sep-19 06:32N 56°56' E 011°46'11 9.7
2014-Sep-19 05:24N 57°06' E 011°38'8 9.7
2014-Sep-19 04:33N 57°14' E 011°33'10 9.8
2014-Sep-19 03:33N 57°23' E 011°27'9 9.3
2014-Sep-19 02:33N 57°31' E 011°17'10 9.6
2014-Sep-19 01:33N 57°35' E 011°01'1010.0
2014-Sep-19 00:33N 57°40' E 010°45'  
2014-Sep-16 11:29N 58°41' W 003°00'18 8.7
2014-Sep-16 09:25N 58°43' W 003°35'8 8.9
2014-Sep-16 08:33N 58°43' W 003°49'9 9.0
2014-Sep-16 07:33N 58°42' W 004°06'190 8.3
2014-Sep-15 08:31N 55°50' W 006°34'1010.9
2014-Sep-15 07:33N 55°39' W 006°35'1212.0
2014-Sep-15 06:33N 55°30' W 006°21'1111.5
2014-Sep-15 05:33N 55°24' W 006°03'1212.2
2014-Sep-15 04:33N 55°15' W 005°50'2110.4
2014-Sep-15 02:32N 54°58' W 005°29'9 9.2
2014-Sep-15 01:33N 54°50' W 005°20'9 8.6
2014-Sep-15 00:34N 54°43' W 005°12'8 8.2
2014-Sep-14 23:33N 54°36' W 005°05'9 8.9
2014-Sep-14 22:33N 54°27' W 005°03'10 9.7
2014-Sep-14 21:32N 54°17' W 005°00'73 2.9
2014-Sep-13 20:14N 53°25' W 003°35'810.7
2014-Sep-13 19:30N 53°28' W 003°24'17 3.4
2014-Sep-13 14:24N 53°30' W 003°53'5 4.9
2014-Sep-13 13:21N 53°30' W 004°02'313 7.5
2014-Sep-11 19:33N 48°27' W 006°06'15510.3
2014-Sep-11 04:29N 46°07' W 004°28'1010.6
2014-Sep-11 03:31N 45°57' W 004°22'1110.7
2014-Sep-11 02:31N 45°47' W 004°15'1010.5
2014-Sep-11 01:34N 45°38' W 004°09'1110.5
2014-Sep-11 00:32N 45°29' W 004°03'1010.2
2014-Sep-10 23:32N 45°20' W 003°57'1010.0
2014-Sep-10 22:34N 45°11' W 003°51'6610.5
2014-Sep-10 16:17N 44°11' W 003°10'50 5.2
2014-Sep-10 06:32N 43°25' W 002°43'  
Track history (hours):
 
Tides and Currents Weather Stations Pressure Air Temp Water Temp Dewpoint Dewpoint Depression Visibility Wind Speed Wind Dir Waves Ship Positions

Novomar

Last reported at 2014-Sep-19 13:33 UTC. Time now 2014-Sep-19 13:56 UTC.
Position N 56°01' E 012°38'.

Length 89 m; draft 5.3 m.

Type: Cargo ship. MMSI: 210974000.

Date/timePositionNaut miles runAvg speedWind from/ knotsBaromVisibWave heightAir tempDewpointWater temp
2014-Sep-19 13:33N 56°01' E 012°38'8 8.2
2014-Sep-19 12:33N 56°08' E 012°29'9 8.9
2014-Sep-19 11:33N 56°13' E 012°16'9 9.5
2014-Sep-19 10:33N 56°19' E 012°03'21 9.4
2014-Sep-19 08:16N 56°40' E 011°55'17 9.8
2014-Sep-19 06:32N 56°56' E 011°46'11 9.7
2014-Sep-19 05:24N 57°06' E 011°38'8 9.7
2014-Sep-19 04:33N 57°14' E 011°33'10 9.8
2014-Sep-19 03:33N 57°23' E 011°27'9 9.3
2014-Sep-19 02:33N 57°31' E 011°17'10 9.6
2014-Sep-19 01:33N 57°35' E 011°01'1010.0
2014-Sep-19 00:33N 57°40' E 010°45'  
2014-Sep-16 11:29N 58°41' W 003°00'18 8.7
2014-Sep-16 09:25N 58°43' W 003°35'8 8.9
2014-Sep-16 08:33N 58°43' W 003°49'9 9.0
2014-Sep-16 07:33N 58°42' W 004°06'190 8.3
2014-Sep-15 08:31N 55°50' W 006°34'1010.9
2014-Sep-15 07:33N 55°39' W 006°35'1212.0
2014-Sep-15 06:33N 55°30' W 006°21'1111.5
2014-Sep-15 05:33N 55°24' W 006°03'1212.2
2014-Sep-15 04:33N 55°15' W 005°50'2110.4
2014-Sep-15 02:32N 54°58' W 005°29'9 9.2
2014-Sep-15 01:33N 54°50' W 005°20'9 8.6
2014-Sep-15 00:34N 54°43' W 005°12'8 8.2
2014-Sep-14 23:33N 54°36' W 005°05'9 8.9
2014-Sep-14 22:33N 54°27' W 005°03'10 9.7
2014-Sep-14 21:32N 54°17' W 005°00'73 2.9
2014-Sep-13 20:14N 53°25' W 003°35'810.7
2014-Sep-13 19:30N 53°28' W 003°24'17 3.4
2014-Sep-13 14:24N 53°30' W 003°53'5 4.9
2014-Sep-13 13:21N 53°30' W 004°02'313 7.5
2014-Sep-11 19:33N 48°27' W 006°06'15510.3
2014-Sep-11 04:29N 46°07' W 004°28'1010.6
2014-Sep-11 03:31N 45°57' W 004°22'1110.7
2014-Sep-11 02:31N 45°47' W 004°15'1010.5
2014-Sep-11 01:34N 45°38' W 004°09'1110.5
2014-Sep-11 00:32N 45°29' W 004°03'1010.2
2014-Sep-10 23:32N 45°20' W 003°57'1010.0
2014-Sep-10 22:34N 45°11' W 003°51'6610.5
2014-Sep-10 16:17N 44°11' W 003°10'50 5.2
2014-Sep-10 06:32N 43°25' W 002°43'  

Dump ship's entire track history